Time;durP1;ratioP1;P1;durP2;ratioP2;P2;SDS_P1;SDS_P2;PMS_P1;PMS_P2;Temp;Humidity;BMP_temperature;BMP_pressure;BME280_temperature;BME280_humidity;BME280_pressure;Samples;Min_cycle;Max_cycle;Signal;HPM_P1;HPM_P2
2021/03/11 00:01:40;;;;;;;28.27;18.20;;;3.30;99.90;;;;;;5098918;28;20206;-83
2021/03/11 00:04:06;;;;;;;30.73;16.83;;;3.30;99.90;;;;;;5098916;28;20215;-81
2021/03/11 00:06:33;;;;;;;30.65;17.13;;;3.30;99.90;;;;;;5098814;28;20570;-82
2021/03/11 00:09:00;;;;;;;26.95;18.23;;;3.30;99.90;;;;;;5100333;28;20244;-82
2021/03/11 00:11:26;;;;;;;33.80;18.60;;;3.30;99.90;;;;;;5105394;28;20259;-78
2021/03/11 00:13:52;;;;;;;32.83;19.20;;;3.30;99.90;;;;;;5110213;28;20201;-78
2021/03/11 00:16:18;;;;;;;31.13;19.55;;;3.20;99.90;;;;;;5110223;28;20214;-80
2021/03/11 00:18:44;;;;;;;36.55;20.50;;;3.10;99.90;;;;;;5109897;28;20216;-79
2021/03/11 00:21:10;;;;;;;31.30;18.88;;;3.20;99.90;;;;;;5099370;28;20202;-81
2021/03/11 00:23:37;;;;;;;33.60;21.45;;;3.40;99.90;;;;;;5098457;28;20599;-81
2021/03/11 00:26:03;;;;;;;30.27;19.70;;;3.30;99.90;;;;;;5098670;28;20204;-81
2021/03/11 00:28:29;;;;;;;29.63;18.77;;;3.30;99.90;;;;;;5097547;28;20579;-81
2021/03/11 00:30:55;;;;;;;31.27;20.40;;;3.20;99.90;;;;;;5100555;28;20225;-78
2021/03/11 00:33:21;;;;;;;30.42;18.48;;;3.20;99.90;;;;;;5105844;28;20205;-81
2021/03/11 00:35:47;;;;;;;34.50;20.02;;;3.20;99.90;;;;;;5097871;28;20658;-81
2021/03/11 00:38:15;;;;;;;32.85;19.52;;;3.30;99.90;;;;;;5099123;28;20744;-80
2021/03/11 00:40:42;;;;;;;30.48;20.55;;;3.30;99.90;;;;;;5098787;28;20252;-81
2021/03/11 00:43:09;;;;;;;37.15;22.35;;;3.30;99.90;;;;;;5098029;28;20209;-80
2021/03/11 00:45:36;;;;;;;32.22;20.23;;;3.30;99.90;;;;;;5098986;28;20267;-81
2021/03/11 00:48:02;;;;;;;34.33;21.63;;;3.30;99.90;;;;;;5096848;28;20201;-81
2021/03/11 00:50:29;;;;;;;30.38;20.42;;;3.20;99.90;;;;;;5097526;28;20271;-81
2021/03/11 00:52:55;;;;;;;37.08;21.48;;;3.30;99.90;;;;;;5096989;28;20205;-80
2021/03/11 00:55:21;;;;;;;36.40;22.23;;;3.20;99.90;;;;;;5097242;28;20253;-80
2021/03/11 00:57:49;;;;;;;33.78;23.17;;;3.40;99.90;;;;;;5096608;28;20612;-80
2021/03/11 01:00:18;;;;;;;33.92;20.85;;;3.30;99.90;;;;;;5097117;28;20228;-81
2021/03/11 01:02:44;;;;;;;34.90;20.90;;;3.30;99.90;;;;;;5100669;28;20672;-80
2021/03/11 01:05:13;;;;;;;35.55;22.35;;;3.40;99.90;;;;;;5106520;28;20576;-81
2021/03/11 01:07:39;;;;;;;35.40;21.35;;;3.30;99.90;;;;;;5102712;28;20259;-83
2021/03/11 01:10:09;;;;;;;37.63;21.17;;;3.40;99.90;;;;;;5101771;28;20228;-79
2021/03/11 01:12:35;;;;;;;33.28;21.48;;;3.30;99.90;;;;;;5101542;28;20202;-82
2021/03/11 01:15:03;;;;;;;34.58;20.08;;;3.30;99.90;;;;;;5101132;28;20233;-82
2021/03/11 01:17:29;;;;;;;38.45;21.80;;;3.60;99.90;;;;;;5096760;28;20575;-81
2021/03/11 01:19:55;;;;;;;35.13;22.05;;;3.50;99.90;;;;;;5096673;28;20241;-80
2021/03/11 01:22:21;;;;;;;36.50;22.77;;;3.40;99.90;;;;;;5097238;28;20206;-80
2021/03/11 01:24:47;;;;;;;39.70;23.33;;;3.60;99.90;;;;;;5098359;28;20205;-81
2021/03/11 01:27:13;;;;;;;35.67;22.08;;;3.30;99.90;;;;;;5096665;28;20302;-80
2021/03/11 01:29:39;;;;;;;42.33;25.58;;;3.40;99.90;;;;;;5095558;28;20228;-81
2021/03/11 01:32:07;;;;;;;36.17;23.33;;;3.30;99.90;;;;;;5095260;28;20213;-80
2021/03/11 01:34:33;;;;;;;42.70;23.42;;;3.30;99.90;;;;;;5095793;28;20583;-81
2021/03/11 01:36:59;;;;;;;44.30;24.17;;;3.50;99.90;;;;;;5095982;28;20715;-80
2021/03/11 01:39:25;;;;;;;41.88;23.90;;;3.50;99.90;;;;;;5095889;28;20234;-80
2021/03/11 01:41:51;;;;;;;41.80;24.58;;;3.30;99.90;;;;;;5099014;28;20239;-80
2021/03/11 01:44:17;;;;;;;35.22;22.67;;;3.50;99.90;;;;;;5103186;28;20197;-79
2021/03/11 01:46:43;;;;;;;44.03;24.20;;;3.50;99.90;;;;;;5103620;28;20197;-80
2021/03/11 01:49:10;;;;;;;40.63;22.90;;;3.60;99.90;;;;;;5102962;28;20233;-81
2021/03/11 01:51:36;;;;;;;43.00;23.23;;;3.60;99.90;;;;;;5101311;28;20605;-81
2021/03/11 01:54:03;;;;;;;39.42;22.52;;;3.60;99.90;;;;;;5101493;28;20198;-82
2021/03/11 01:56:29;;;;;;;47.83;26.75;;;3.60;99.90;;;;;;5100070;28;20221;-81
2021/03/11 01:58:55;;;;;;;45.33;25.58;;;3.50;99.90;;;;;;5104154;28;20339;-81
2021/03/11 02:01:21;;;;;;;43.05;24.15;;;3.50;99.90;;;;;;5103963;28;20205;-81
2021/03/11 02:03:47;;;;;;;41.85;24.80;;;3.60;99.90;;;;;;5101425;28;20212;-79
2021/03/11 02:06:15;;;;;;;35.72;23.25;;;3.50;99.90;;;;;;5102701;28;20197;-81
2021/03/11 02:08:42;;;;;;;39.60;23.23;;;3.00;99.90;;;;;;5100305;28;20596;-80
2021/03/11 02:11:13;;;;;;;45.72;24.55;;;3.60;99.90;;;;;;5100933;28;20206;-81
2021/03/11 02:13:44;;;;;;;41.58;24.48;;;3.70;99.90;;;;;;5105314;28;20189;-79
2021/03/11 02:16:15;;;;;;;45.25;26.40;;;3.70;99.90;;;;;;5116046;28;20210;-79
2021/03/11 02:18:49;;;;;;;42.78;24.75;;;3.80;99.90;;;;;;5118706;28;20186;-78
2021/03/11 02:21:22;;;;;;;40.40;25.48;;;3.70;99.90;;;;;;5118335;28;20181;-77
2021/03/11 02:24:11;;;;;;;44.90;25.38;;;3.70;99.90;;;;;;5118909;28;20212;-79
2021/03/11 02:27:00;;;;;;;44.70;24.98;;;3.90;99.90;;;;;;5076332;28;20208;-80
2021/03/11 02:29:29;;;;;;;43.38;25.13;;;3.40;99.90;;;;;;5113066;28;20210;-81
2021/03/11 02:31:57;;;;;;;47.00;25.58;;;3.70;99.90;;;;;;5113619;28;20220;-81
2021/03/11 02:34:27;;;;;;;43.00;25.73;;;3.70;99.90;;;;;;5110088;28;20224;-79
2021/03/11 02:36:56;;;;;;;45.92;26.88;;;3.70;99.90;;;;;;5109164;28;20275;-80
2021/03/11 02:39:26;;;;;;;47.22;26.17;;;3.70;99.90;;;;;;5111593;28;20229;-82
2021/03/11 02:41:54;;;;;;;41.15;26.25;;;3.80;99.90;;;;;;5109549;28;20202;-80
2021/03/11 02:44:21;;;;;;;39.63;24.25;;;3.80;99.90;;;;;;5105954;28;20554;-82
2021/03/11 02:46:49;;;;;;;43.83;23.85;;;4.00;99.90;;;;;;5119427;28;20268;-81
2021/03/11 02:49:17;;;;;;;43.67;24.60;;;3.80;99.90;;;;;;5111653;28;20271;-81
2021/03/11 02:51:43;;;;;;;40.40;23.33;;;3.90;99.90;;;;;;5099615;28;20197;-81
2021/03/11 02:54:10;;;;;;;48.72;26.00;;;3.80;99.90;;;;;;5109880;28;20198;-80
2021/03/11 02:56:37;;;;;;;44.60;26.08;;;3.80;99.90;;;;;;5119985;28;20213;-81
2021/03/11 02:59:06;;;;;;;44.80;25.98;;;3.80;99.90;;;;;;5110150;28;20222;-82
2021/03/11 03:01:33;;;;;;;38.40;24.98;;;3.90;99.90;;;;;;5099622;28;20232;-80
2021/03/11 03:04:02;;;;;;;44.90;25.13;;;4.00;99.90;;;;;;5118562;28;20201;-80
2021/03/11 03:06:30;;;;;;;47.83;26.27;;;3.90;99.90;;;;;;5114623;28;20235;-81
2021/03/11 03:08:56;;;;;;;46.85;26.02;;;3.90;99.90;;;;;;5102375;28;20226;-81
2021/03/11 03:11:25;;;;;;;48.47;27.00;;;3.80;99.90;;;;;;5098816;28;20757;-81
2021/03/11 03:13:53;;;;;;;43.95;25.40;;;3.90;99.90;;;;;;5097691;28;20292;-80
2021/03/11 03:16:20;;;;;;;44.28;25.42;;;3.90;99.90;;;;;;5096820;28;20241;-79
2021/03/11 03:18:46;;;;;;;42.15;25.45;;;3.70;99.90;;;;;;5097246;28;20699;-82
2021/03/11 03:21:13;;;;;;;45.47;27.55;;;3.80;99.90;;;;;;5098364;28;20202;-81
2021/03/11 03:23:40;;;;;;;46.63;25.95;;;3.80;99.90;;;;;;5097533;28;20209;-81
2021/03/11 03:26:07;;;;;;;48.67;28.17;;;3.80;99.90;;;;;;5098580;28;20204;-82
2021/03/11 03:28:33;;;;;;;40.25;24.85;;;3.80;99.90;;;;;;5098294;28;20208;-82
2021/03/11 03:31:00;;;;;;;42.13;25.55;;;3.80;99.90;;;;;;5097914;28;20236;-80
2021/03/11 03:33:26;;;;;;;39.55;25.85;;;3.90;99.90;;;;;;5098946;28;20236;-81
2021/03/11 03:35:52;;;;;;;46.13;25.63;;;3.90;99.90;;;;;;5099729;28;20312;-81
2021/03/11 03:38:19;;;;;;;49.22;27.08;;;3.80;99.90;;;;;;5099238;28;20202;-81
2021/03/11 03:40:45;;;;;;;42.72;26.27;;;3.70;99.90;;;;;;5096602;28;20236;-81
2021/03/11 03:43:15;;;;;;;48.85;26.63;;;3.70;99.90;;;;;;5097014;28;20201;-81
2021/03/11 03:45:44;;;;;;;45.65;27.08;;;3.70;99.90;;;;;;5097537;28;20205;-82
2021/03/11 03:48:15;;;;;;;48.13;27.40;;;3.80;99.90;;;;;;5098365;28;20403;-80
2021/03/11 03:50:46;;;;;;;40.28;25.35;;;3.80;99.90;;;;;;5098038;28;20568;-80
2021/03/11 03:53:19;;;;;;;47.25;25.58;;;3.80;99.90;;;;;;5096911;28;20186;-80
2021/03/11 03:55:50;;;;;;;45.83;24.77;;;3.90;99.90;;;;;;5097447;28;20210;-80
2021/03/11 03:58:17;;;;;;;43.95;26.88;;;3.80;99.90;;;;;;5105160;28;20193;-79
2021/03/11 04:00:44;;;;;;;46.42;26.20;;;3.80;99.90;;;;;;5109112;28;20436;-78
2021/03/11 04:03:11;;;;;;;47.63;28.35;;;3.80;99.90;;;;;;5108212;28;20268;-78
2021/03/11 04:05:37;;;;;;;46.30;26.90;;;3.80;99.90;;;;;;5106632;28;20575;-79
2021/03/11 04:08:05;;;;;;;48.72;29.63;;;3.80;99.90;;;;;;5107821;28;20201;-79
2021/03/11 04:10:32;;;;;;;47.22;25.92;;;3.80;99.90;;;;;;5104780;28;20736;-79
2021/03/11 04:13:00;;;;;;;52.78;27.63;;;3.70;99.90;;;;;;5108212;28;20194;-78
2021/03/11 04:15:26;;;;;;;47.58;27.55;;;3.80;99.90;;;;;;5109776;28;20217;-79
2021/03/11 04:17:53;;;;;;;49.08;26.88;;;3.70;99.90;;;;;;5097382;28;20206;-80
2021/03/11 04:20:20;;;;;;;50.63;28.25;;;3.70;99.90;;;;;;5096606;28;20230;-79
2021/03/11 04:22:46;;;;;;;43.47;25.58;;;3.60;99.90;;;;;;5097244;28;20202;-80
2021/03/11 04:25:13;;;;;;;44.63;26.05;;;3.70;99.90;;;;;;5096397;28;20197;-80
2021/03/11 04:27:39;;;;;;;53.85;27.60;;;3.70;99.90;;;;;;5098893;28;20233;-79
2021/03/11 04:30:08;;;;;;;49.03;26.17;;;3.70;99.90;;;;;;5107638;28;20232;-79
2021/03/11 04:32:36;;;;;;;44.45;25.27;;;3.70;99.90;;;;;;5107173;28;20224;-81
2021/03/11 04:35:03;;;;;;;52.35;29.52;;;3.70;99.90;;;;;;5097250;28;20436;-80
2021/03/11 04:37:31;;;;;;;53.90;30.50;;;3.70;99.90;;;;;;5095873;28;20455;-80
2021/03/11 04:39:57;;;;;;;51.58;29.23;;;3.60;99.90;;;;;;5096742;28;20233;-81
2021/03/11 04:42:24;;;;;;;48.08;27.70;;;3.70;99.90;;;;;;5096936;28;20203;-80
2021/03/11 04:44:50;;;;;;;48.30;26.15;;;3.70;99.90;;;;;;5096620;28;20639;-80
2021/03/11 04:47:17;;;;;;;46.35;26.98;;;3.70;99.90;;;;;;5097212;28;20753;-81
2021/03/11 04:49:45;;;;;;;50.13;26.45;;;3.70;99.90;;;;;;5099200;28;20578;-78
2021/03/11 04:52:11;;;;;;;51.85;27.30;;;3.70;99.90;;;;;;5106257;28;20201;-80
2021/03/11 04:54:38;;;;;;;46.67;25.25;;;3.70;99.90;;;;;;5097055;28;20668;-81
2021/03/11 04:57:06;;;;;;;48.00;26.85;;;3.70;99.90;;;;;;5096237;28;20271;-79
2021/03/11 04:59:32;;;;;;;53.80;27.73;;;3.70;99.90;;;;;;5096257;28;20229;-79
2021/03/11 05:02:00;;;;;;;48.38;25.35;;;3.70;99.90;;;;;;5096142;28;20205;-79
2021/03/11 05:04:28;;;;;;;49.65;24.45;;;3.70;99.90;;;;;;5096397;28;20237;-80
2021/03/11 05:06:54;;;;;;;48.78;26.13;;;3.70;99.90;;;;;;5096444;28;20197;-80
2021/03/11 05:09:20;;;;;;;48.75;25.58;;;3.70;99.90;;;;;;5096392;28;20225;-80
2021/03/11 05:11:47;;;;;;;44.65;26.60;;;3.80;99.90;;;;;;5096313;28;20212;-80
2021/03/11 05:14:13;;;;;;;54.08;26.08;;;3.80;99.90;;;;;;5096136;28;20208;-80
2021/03/11 05:16:39;;;;;;;45.45;25.52;;;3.90;99.90;;;;;;5096310;28;20456;-80
2021/03/11 05:19:06;;;;;;;44.30;24.90;;;3.90;99.90;;;;;;5096393;28;20225;-81
2021/03/11 05:21:34;;;;;;;47.63;25.65;;;3.90;99.90;;;;;;5110656;28;20549;-79
2021/03/11 05:24:00;;;;;;;44.88;24.92;;;3.90;99.90;;;;;;5112204;28;20703;-80
2021/03/11 05:26:26;;;;;;;44.00;25.55;;;3.90;99.90;;;;;;5108351;28;20201;-81
2021/03/11 05:28:53;;;;;;;50.47;27.20;;;3.90;99.90;;;;;;5099950;28;20222;-80
2021/03/11 05:31:19;;;;;;;49.95;26.65;;;3.90;99.90;;;;;;5099976;28;20213;-80
2021/03/11 05:33:45;;;;;;;50.00;24.65;;;4.00;99.90;;;;;;5099532;28;20201;-80
2021/03/11 05:36:11;;;;;;;46.80;26.13;;;4.00;99.90;;;;;;5099271;28;20236;-80
2021/03/11 05:38:38;;;;;;;50.10;27.95;;;3.90;99.90;;;;;;5100101;28;20611;-81
2021/03/11 05:41:05;;;;;;;49.55;29.73;;;4.00;99.90;;;;;;5127056;22;20229;-85
2021/03/11 05:43:31;;;;;;;48.58;25.20;;;3.90;99.90;;;;;;5104399;28;20205;-84
2021/03/11 05:46:01;;;;;;;53.28;28.60;;;3.90;99.90;;;;;;5106260;28;20236;-84
2021/03/11 05:48:29;;;;;;;51.50;25.95;;;4.10;99.90;;;;;;5104892;28;20212;-84
2021/03/11 05:50:55;;;;;;;52.70;27.45;;;3.90;99.90;;;;;;5100422;28;20225;-84
2021/03/11 05:53:22;;;;;;;52.17;25.05;;;3.90;99.90;;;;;;5100452;28;20209;-84
2021/03/11 05:55:49;;;;;;;54.83;27.55;;;3.90;99.90;;;;;;5101364;28;20241;-84
2021/03/11 05:58:18;;;;;;;45.58;24.20;;;4.00;99.90;;;;;;5102518;28;20224;-84
2021/03/11 06:00:45;;;;;;;45.92;24.80;;;4.00;99.90;;;;;;5105485;28;20228;-83
2021/03/11 06:03:11;;;;;;;47.70;26.42;;;4.20;99.90;;;;;;5105894;28;20216;-84
2021/03/11 06:05:38;;;;;;;53.92;27.05;;;3.90;99.90;;;;;;5106228;28;20206;-85
2021/03/11 06:08:10;;;;;;;50.50;27.75;;;4.00;99.90;;;;;;5099512;28;20185;-85
2021/03/11 06:10:39;;;;;;;49.25;28.23;;;4.00;99.90;;;;;;5098825;28;20225;-85
2021/03/11 06:13:08;;;;;;;48.58;26.67;;;4.00;99.90;;;;;;5099333;28;20198;-85
2021/03/11 06:15:36;;;;;;;52.10;28.60;;;3.90;99.90;;;;;;5100306;28;20572;-84
2021/03/11 06:18:05;;;;;;;55.08;29.75;;;4.00;99.90;;;;;;5101780;28;20201;-84
2021/03/11 06:20:31;;;;;;;55.10;28.00;;;4.00;99.90;;;;;;5110967;28;20228;-85
2021/03/11 06:22:57;;;;;;;51.50;27.58;;;4.00;99.90;;;;;;5109525;28;20227;-84
2021/03/11 06:25:24;;;;;;;47.47;26.15;;;4.00;99.90;;;;;;5111664;28;20253;-84
2021/03/11 06:27:53;;;;;;;53.92;28.98;;;4.30;99.90;;;;;;5111213;28;20202;-85
2021/03/11 06:30:31;;;;;;;51.25;28.80;;;3.90;99.90;;;;;;5099491;28;20225;-84
2021/03/11 06:32:58;;;;;;;51.88;29.02;;;4.00;99.90;;;;;;5099807;28;20239;-85
2021/03/11 06:35:25;;;;;;;50.78;26.38;;;4.00;99.90;;;;;;5099789;28;20266;-84
2021/03/11 06:37:51;;;;;;;52.90;28.20;;;4.00;99.90;;;;;;5101892;28;20619;-84
2021/03/11 06:40:19;;;;;;;55.83;26.60;;;4.00;99.90;;;;;;5109201;28;20236;-83
2021/03/11 06:42:46;;;;;;;50.33;26.00;;;4.00;99.90;;;;;;5105774;28;20206;-83
2021/03/11 06:45:31;;;;;;;53.22;27.30;;;4.00;99.90;;;;;;5099153;28;20290;-84
2021/03/11 06:48:18;;;;;;;50.63;26.42;;;4.00;99.90;;;;;;5099989;28;20221;-84
2021/03/11 06:50:45;;;;;;;50.95;27.85;;;4.10;99.90;;;;;;5100365;28;20245;-84
2021/03/11 06:53:11;;;;;;;57.25;29.50;;;4.10;99.90;;;;;;5101843;28;20206;-84
2021/03/11 06:55:37;;;;;;;54.25;29.08;;;4.10;99.90;;;;;;5102478;28;20612;-84
2021/03/11 06:58:19;;;;;;;53.95;27.58;;;4.20;99.90;;;;;;5099722;28;20229;-84
2021/03/11 07:00:47;;;;;;;46.95;27.40;;;4.20;99.90;;;;;;5099116;28;20229;-83
2021/03/11 07:03:14;;;;;;;53.22;27.13;;;4.20;99.90;;;;;;5100493;28;20209;-84
2021/03/11 07:05:41;;;;;;;56.92;28.70;;;4.30;99.90;;;;;;5100698;28;20202;-84
2021/03/11 07:08:09;;;;;;;55.60;29.38;;;4.10;99.90;;;;;;5098965;28;20205;-84
2021/03/11 07:10:36;;;;;;;57.92;27.70;;;4.20;99.90;;;;;;5098666;28;20225;-85
2021/03/11 07:13:04;;;;;;;58.88;27.67;;;4.10;99.90;;;;;;5098690;28;20288;-85
2021/03/11 07:15:31;;;;;;;50.03;28.40;;;4.20;99.90;;;;;;5099332;28;20595;-84
2021/03/11 07:17:59;;;;;;;50.30;27.65;;;4.20;99.90;;;;;;5101138;28;20205;-84
2021/03/11 07:20:26;;;;;;;52.85;30.48;;;4.20;99.90;;;;;;5100444;28;20228;-84
2021/03/11 07:23:02;;;;;;;54.85;28.55;;;4.20;99.90;;;;;;5100680;28;20571;-84
2021/03/11 07:25:31;;;;;;;52.53;25.70;;;4.30;99.90;;;;;;5100713;28;20205;-84
2021/03/11 07:27:59;;;;;;;56.80;29.38;;;4.20;99.90;;;;;;5100856;28;20202;-85
2021/03/11 07:30:26;;;;;;;60.03;29.00;;;4.20;99.90;;;;;;5102157;28;20226;-84
2021/03/11 07:32:58;;;;;;;57.92;28.75;;;4.20;99.90;;;;;;5100435;28;20214;-84
2021/03/11 07:35:26;;;;;;;54.65;30.35;;;4.20;99.90;;;;;;5100302;28;20644;-85
2021/03/11 07:37:55;;;;;;;60.25;29.55;;;4.30;99.90;;;;;;5098857;28;20201;-85
2021/03/11 07:40:22;;;;;;;55.58;29.38;;;4.30;99.90;;;;;;5099638;28;20229;-84
2021/03/11 07:42:49;;;;;;;55.88;27.65;;;4.30;99.90;;;;;;5099456;28;20233;-84
2021/03/11 07:45:15;;;;;;;45.97;27.02;;;4.40;99.90;;;;;;5099076;28;20186;-84
2021/03/11 07:47:42;;;;;;;50.67;26.20;;;4.50;99.90;;;;;;5099030;28;20197;-84
2021/03/11 07:50:11;;;;;;;49.85;26.15;;;4.50;99.90;;;;;;5102145;28;20218;-84
2021/03/11 07:52:39;;;;;;;47.85;25.70;;;4.40;99.90;;;;;;5110693;28;20660;-84
2021/03/11 07:55:07;;;;;;;55.08;27.02;;;4.60;99.90;;;;;;5114836;28;20195;-85
2021/03/11 07:57:38;;;;;;;44.63;27.05;;;4.60;99.90;;;;;;5115811;28;20249;-84
2021/03/11 08:00:08;;;;;;;44.70;26.58;;;4.60;99.90;;;;;;5115036;28;20228;-84
2021/03/11 08:02:37;;;;;;;48.03;27.92;;;4.60;99.90;;;;;;5108978;28;20663;-85
2021/03/11 08:05:05;;;;;;;49.72;27.70;;;4.20;99.90;;;;;;5103820;28;20205;-84
2021/03/11 08:07:31;;;;;;;50.17;26.10;;;4.60;99.90;;;;;;5102039;28;20198;-84
2021/03/11 08:09:59;;;;;;;47.78;24.33;;;4.80;99.90;;;;;;5102177;28;20218;-84
2021/03/11 08:12:37;;;;;;;49.47;28.10;;;4.60;99.90;;;;;;5102926;28;20675;-84
2021/03/11 08:15:06;;;;;;;44.05;24.58;;;4.70;99.90;;;;;;5100770;28;20288;-83
2021/03/11 08:17:43;;;;;;;42.92;25.00;;;4.70;99.90;;;;;;5098811;28;20225;-83
2021/03/11 08:20:38;;;;;;;43.63;25.50;;;4.70;99.90;;;;;;5097403;28;20660;-84
2021/03/11 08:23:06;;;;;;;48.47;26.60;;;4.70;99.90;;;;;;5097396;28;20212;-84
2021/03/11 08:25:49;;;;;;;52.60;27.80;;;4.80;99.90;;;;;;5098622;28;20205;-84
2021/03/11 08:28:38;;;;;;;43.10;24.60;;;4.80;99.90;;;;;;5098783;28;20186;-85
2021/03/11 08:31:06;;;;;;;45.25;24.70;;;4.90;99.90;;;;;;5097646;28;20683;-85
2021/03/11 08:33:48;;;;;;;53.75;25.55;;;4.80;99.90;;;;;;5098509;28;20201;-84
2021/03/11 08:36:29;;;;;;;47.88;24.98;;;5.10;99.90;;;;;;5099043;28;20214;-85
2021/03/11 08:38:56;;;;;;;44.95;25.13;;;5.00;99.90;;;;;;5098486;28;20197;-84
2021/03/11 08:41:33;;;;;;;42.85;24.17;;;5.00;99.90;;;;;;5098476;28;20266;-84
2021/03/11 08:44:03;;;;;;;47.83;24.92;;;5.00;99.90;;;;;;5097312;28;20192;-84
2021/03/11 08:46:52;;;;;;;44.88;23.98;;;5.00;99.90;;;;;;5097493;28;20189;-84
2021/03/11 08:49:39;;;;;;;48.17;25.92;;;5.10;99.90;;;;;;5097699;28;20376;-84
2021/03/11 08:52:05;;;;;;;46.03;24.30;;;5.10;99.90;;;;;;5098099;28;20560;-83
2021/03/11 08:54:32;;;;;;;48.75;25.90;;;5.10;99.90;;;;;;5099191;28;20202;-84
2021/03/11 08:56:59;;;;;;;35.97;23.38;;;5.10;99.90;;;;;;5102986;28;20221;-84
2021/03/11 08:59:47;;;;;;;42.92;23.58;;;5.10;99.90;;;;;;5103616;28;20268;-83
2021/03/11 09:02:40;;;;;;;41.72;24.85;;;5.20;99.90;;;;;;5105980;28;20258;-83
2021/03/11 09:05:08;;;;;;;34.58;22.35;;;5.20;99.90;;;;;;5057354;28;20208;-84
2021/03/11 09:07:35;;;;;;;43.58;23.52;;;5.20;99.90;;;;;;5102673;28;20202;-84
2021/03/11 09:10:03;;;;;;;37.92;22.90;;;4.90;99.90;;;;;;5101056;28;20229;-84
2021/03/11 09:12:36;;;;;;;42.88;24.70;;;5.20;99.90;;;;;;5108830;28;20205;-84
2021/03/11 09:15:05;;;;;;;42.22;24.58;;;5.20;99.90;;;;;;5116628;28;20197;-84
2021/03/11 09:17:33;;;;;;;44.00;24.00;;;5.20;99.90;;;;;;5112199;28;20221;-84
2021/03/11 09:20:01;;;;;;;41.40;23.15;;;5.20;99.90;;;;;;5105881;28;20229;-84
2021/03/11 09:22:30;;;;;;;45.63;24.85;;;5.20;99.90;;;;;;5101358;28;20202;-83
2021/03/11 09:25:13;;;;;;;39.03;22.60;;;5.40;99.90;;;;;;5106906;28;20206;-83
2021/03/11 09:27:51;;;;;;;44.83;23.27;;;5.20;99.90;;;;;;5101231;28;20197;-85
2021/03/11 09:30:18;;;;;;;45.05;24.60;;;5.30;99.90;;;;;;5101619;28;20260;-84
2021/03/11 09:32:44;;;;;;;44.97;23.70;;;5.30;99.90;;;;;;5101086;28;20231;-85
2021/03/11 09:35:13;;;;;;;44.25;24.25;;;5.30;99.90;;;;;;5102991;28;20206;-84
2021/03/11 09:37:50;;;;;;;41.63;23.90;;;5.40;99.90;;;;;;5102848;28;20217;-85
2021/03/11 09:40:24;;;;;;;36.30;22.35;;;5.40;99.90;;;;;;5100045;28;20615;-84
2021/03/11 09:43:10;;;;;;;39.78;21.65;;;5.40;99.90;;;;;;5101296;28;20190;-84
2021/03/11 09:45:42;;;;;;;39.45;23.23;;;5.40;99.90;;;;;;5103639;28;20235;-84
2021/03/11 09:48:10;;;;;;;34.83;21.60;;;5.50;99.90;;;;;;5112716;28;20261;-84
2021/03/11 09:50:38;;;;;;;42.30;22.95;;;5.60;99.90;;;;;;5114114;28;20241;-84
2021/03/11 09:53:05;;;;;;;42.92;23.65;;;5.60;99.90;;;;;;5114459;28;20190;-84
2021/03/11 09:55:33;;;;;;;37.03;21.70;;;5.80;99.90;;;;;;5117205;28;20292;-84
2021/03/11 09:58:00;;;;;;;37.47;21.15;;;;;;;;;;5117879;28;20539;-85
2021/03/11 10:00:27;;;;;;;45.70;22.23;;;5.50;99.90;;;;;;5117454;28;20260;-84
2021/03/11 10:02:54;;;;;;;36.80;21.00;;;5.70;99.90;;;;;;5113545;28;20205;-84
2021/03/11 10:05:21;;;;;;;36.13;21.33;;;5.70;99.90;;;;;;5106653;28;20254;-84
2021/03/11 10:07:55;;;;;;;37.22;20.63;;;5.70;99.90;;;;;;5106832;28;20206;-84
2021/03/11 10:10:21;;;;;;;37.08;20.95;;;5.70;99.90;;;;;;5111070;28;20221;-84
2021/03/11 10:12:48;;;;;;;35.38;20.65;;;8.20;99.90;;;;;;5104446;28;20205;-84
2021/03/11 10:15:15;;;;;;;34.17;20.30;;;5.80;99.90;;;;;;5100342;28;20225;-85
2021/03/11 10:17:42;;;;;;;30.15;19.05;;;5.80;99.90;;;;;;5102237;28;20225;-84
2021/03/11 10:20:19;;;;;;;28.17;19.30;;;5.80;99.90;;;;;;5106982;28;20217;-84
2021/03/11 10:22:46;;;;;;;35.90;21.27;;;5.80;99.90;;;;;;5104325;28;20204;-83
2021/03/11 10:25:17;;;;;;;29.17;18.27;;;5.80;99.90;;;;;;5100463;28;20201;-85
2021/03/11 10:27:45;;;;;;;32.00;19.90;;;5.90;99.90;;;;;;5099079;28;20258;-84
2021/03/11 10:30:13;;;;;;;29.55;19.20;;;6.00;99.90;;;;;;5100480;28;20240;-84
2021/03/11 10:32:42;;;;;;;37.63;20.00;;;6.10;99.90;;;;;;5099356;28;20202;-84
2021/03/11 10:35:10;;;;;;;33.47;19.65;;;6.10;99.90;;;;;;5100448;28;20210;-84
2021/03/11 10:37:38;;;;;;;29.75;17.00;;;6.00;99.90;;;;;;5114350;28;20221;-83
2021/03/11 10:40:06;;;;;;;29.10;18.83;;;6.00;99.90;;;;;;5103082;28;20298;-84
2021/03/11 10:42:41;;;;;;;33.03;20.63;;;6.40;99.90;;;;;;5099967;28;20194;-84
2021/03/11 10:45:09;;;;;;;34.45;21.65;;;6.20;99.90;;;;;;5099217;28;20235;-84
2021/03/11 10:47:35;;;;;;;31.38;20.60;;;6.20;99.90;;;;;;5100438;28;20710;-84
2021/03/11 10:50:03;;;;;;;32.35;19.60;;;6.30;99.90;;;;;;5099871;28;20225;-84
2021/03/11 10:52:29;;;;;;;31.27;20.08;;;6.40;99.90;;;;;;5100430;28;20202;-84
2021/03/11 10:54:55;;;;;;;30.85;19.10;;;6.50;99.90;;;;;;5100336;28;20201;-84
2021/03/11 10:57:22;;;;;;;31.08;18.70;;;6.50;99.90;;;;;;5102900;28;20225;-84
2021/03/11 10:59:57;;;;;;;30.38;19.98;;;6.40;99.90;;;;;;5108009;28;20218;-84
2021/03/11 11:02:25;;;;;;;28.20;18.20;;;6.60;99.90;;;;;;5119906;28;20233;-84
2021/03/11 11:04:51;;;;;;;29.70;17.45;;;7.10;99.90;;;;;;5118492;28;20205;-84
2021/03/11 11:07:19;;;;;;;30.60;19.00;;;6.90;99.90;;;;;;5118366;28;20227;-84
2021/03/11 11:09:46;;;;;;;28.98;17.55;;;7.10;99.90;;;;;;5113600;28;20221;-85
2021/03/11 11:12:15;;;;;;;26.58;18.90;;;7.20;99.90;;;;;;5100607;28;20210;-85
2021/03/11 11:14:42;;;;;;;30.48;17.50;;;7.40;99.90;;;;;;5100409;28;20207;-84
2021/03/11 11:17:09;;;;;;;28.02;17.75;;;7.60;99.90;;;;;;5100587;28;20278;-84
2021/03/11 11:19:36;;;;;;;24.27;16.77;;;7.70;99.90;;;;;;5102666;28;20575;-84
2021/03/11 11:22:03;;;;;;;24.23;16.25;;;;;;;;;;5100096;28;20213;-83
2021/03/11 11:24:30;;;;;;;21.45;15.05;;;8.00;99.90;;;;;;5098730;28;20552;-83
2021/03/11 11:26:59;;;;;;;24.23;15.77;;;7.40;99.90;;;;;;5102620;28;20197;-84
2021/03/11 11:29:26;;;;;;;20.65;14.20;;;8.20;99.90;;;;;;5105003;28;20225;-84
2021/03/11 11:31:52;;;;;;;22.93;17.20;;;8.60;99.90;;;;;;5105041;28;20220;-84
2021/03/11 11:34:19;;;;;;;21.40;14.15;;;8.30;99.90;;;;;;5104801;28;20443;-84
2021/03/11 11:36:46;;;;;;;20.63;14.10;;;8.40;99.90;;;;;;5103853;28;20224;-86
2021/03/11 11:39:13;;;;;;;21.53;14.00;;;8.70;99.90;;;;;;5102082;28;20205;-84
2021/03/11 11:41:43;;;;;;;17.65;12.40;;;8.60;99.90;;;;;;5140892;22;20525;-80
2021/03/11 11:44:13;;;;;;;17.00;11.70;;;8.50;99.90;;;;;;5084346;28;20235;-77
2021/03/11 11:46:41;;;;;;;19.33;13.73;;;8.50;99.90;;;;;;5102076;28;20497;-80
2021/03/11 11:49:08;;;;;;;18.30;13.07;;;;;;;;;;5103583;28;20205;-79
2021/03/11 11:51:34;;;;;;;21.70;14.13;;;;;;;;;;5104114;28;20487;-80
2021/03/11 11:54:01;;;;;;;15.90;11.80;;;;;;;;;;5100536;28;20212;-79
2021/03/11 11:56:27;;;;;;;17.47;11.63;;;8.70;99.90;;;;;;5106007;28;20475;-78
2021/03/11 11:58:58;;;;;;;19.93;13.83;;;8.90;99.90;;;;;;5100547;28;20804;-79
2021/03/11 12:01:25;;;;;;;16.77;12.03;;;;;;;;;;5098134;28;20452;-78
2021/03/11 12:03:52;;;;;;;17.70;12.73;;;;;;;;;;5099580;28;20425;-79
2021/03/11 12:06:19;;;;;;;15.73;11.47;;;8.90;99.90;;;;;;5101502;28;20198;-80
2021/03/11 12:08:45;;;;;;;14.80;11.70;;;7.80;99.90;;;;;;5101939;28;20448;-80
2021/03/11 12:11:12;;;;;;;19.63;12.75;;;;;;;;;;5106066;28;20331;-79
2021/03/11 12:13:38;;;;;;;15.70;11.17;;;9.30;99.90;;;;;;5106588;28;20213;-79
2021/03/11 12:16:06;;;;;;;18.03;10.30;;;9.40;99.90;;;;;;5104541;28;20526;-79
2021/03/11 12:18:33;;;;;;;12.87;10.17;;;9.30;99.90;;;;;;5099713;28;20432;-80
2021/03/11 12:20:59;;;;;;;16.20;10.90;;;9.30;99.90;;;;;;5100938;28;20479;-80
2021/03/11 12:23:25;;;;;;;12.53;11.00;;;;;;;;;;5098870;28;20422;-80
2021/03/11 12:25:52;;;;;;;10.57;9.47;;;9.70;99.90;;;;;;5097073;28;20531;-79
2021/03/11 12:28:18;;;;;;;14.00;9.23;;;9.70;99.90;;;;;;5096769;28;20450;-80
2021/03/11 12:30:44;;;;;;;13.03;8.63;;;9.70;99.90;;;;;;5096282;28;20446;-82
2021/03/11 12:33:11;;;;;;;11.70;10.10;;;9.70;99.90;;;;;;5097594;28;20908;-80
2021/03/11 12:35:37;;;;;;;15.00;10.30;;;10.00;99.90;;;;;;5096631;28;20431;-80
2021/03/11 12:38:03;;;;;;;11.83;9.07;;;10.20;99.90;;;;;;5096491;28;20512;-80
2021/03/11 12:40:30;;;;;;;14.90;10.27;;;10.30;99.90;;;;;;5096489;28;20830;-80
2021/03/11 12:42:56;;;;;;;14.13;9.53;;;10.50;99.90;;;;;;5098078;28;20455;-80
2021/03/11 12:45:23;;;;;;;11.73;9.17;;;10.50;99.90;;;;;;5098805;28;20493;-81
2021/03/11 12:47:50;;;;;;;14.57;10.53;;;10.50;99.90;;;;;;5097653;28;20496;-79